sensor_id;sensor_type;location;lat;lon;timestamp;temperature;humidity
29571;DHT22;16814;52.118;11.436;2023-10-19T00:02:24;6.40;99.90
29571;DHT22;16814;52.118;11.436;2023-10-19T00:04:52;6.40;99.90
29571;DHT22;16814;52.118;11.436;2023-10-19T00:07:19;6.30;99.90
29571;DHT22;16814;52.118;11.436;2023-10-19T00:09:44;6.40;99.90
29571;DHT22;16814;52.118;11.436;2023-10-19T00:12:14;6.40;99.90
29571;DHT22;16814;52.118;11.436;2023-10-19T00:14:44;6.40;99.90
29571;DHT22;16814;52.118;11.436;2023-10-19T00:17:11;6.50;99.90
29571;DHT22;16814;52.118;11.436;2023-10-19T00:19:36;6.40;99.90
29571;DHT22;16814;52.118;11.436;2023-10-19T00:22:22;6.50;99.90
29571;DHT22;16814;52.118;11.436;2023-10-19T00:24:49;6.60;99.90
29571;DHT22;16814;52.118;11.436;2023-10-19T00:27:17;6.70;99.90
29571;DHT22;16814;52.118;11.436;2023-10-19T00:29:47;6.80;99.90
29571;DHT22;16814;52.118;11.436;2023-10-19T00:32:32;6.80;99.90
29571;DHT22;16814;52.118;11.436;2023-10-19T00:35:08;6.70;99.90
29571;DHT22;16814;52.118;11.436;2023-10-19T00:37:56;6.70;99.90
29571;DHT22;16814;52.118;11.436;2023-10-19T00:40:38;6.70;99.90
29571;DHT22;16814;52.118;11.436;2023-10-19T00:43:07;6.70;99.90
29571;DHT22;16814;52.118;11.436;2023-10-19T00:45:35;6.80;99.90
29571;DHT22;16814;52.118;11.436;2023-10-19T00:48:09;6.70;99.90
29571;DHT22;16814;52.118;11.436;2023-10-19T00:50:37;6.80;99.90
29571;DHT22;16814;52.118;11.436;2023-10-19T00:53:04;6.80;99.90
29571;DHT22;16814;52.118;11.436;2023-10-19T00:55:36;6.80;99.90
29571;DHT22;16814;52.118;11.436;2023-10-19T00:58:04;6.80;99.90
29571;DHT22;16814;52.118;11.436;2023-10-19T01:00:37;6.80;99.90
29571;DHT22;16814;52.118;11.436;2023-10-19T01:03:11;6.90;99.90
29571;DHT22;16814;52.118;11.436;2023-10-19T01:05:44;6.90;99.90
29571;DHT22;16814;52.118;11.436;2023-10-19T01:08:17;7.00;99.90
29571;DHT22;16814;52.118;11.436;2023-10-19T01:11:00;6.90;99.90
29571;DHT22;16814;52.118;11.436;2023-10-19T01:13:31;6.90;99.90
29571;DHT22;16814;52.118;11.436;2023-10-19T01:16:00;6.90;99.90
29571;DHT22;16814;52.118;11.436;2023-10-19T01:18:35;7.00;99.90
29571;DHT22;16814;52.118;11.436;2023-10-19T01:21:03;7.00;99.90
29571;DHT22;16814;52.118;11.436;2023-10-19T01:23:34;7.00;99.90
29571;DHT22;16814;52.118;11.436;2023-10-19T01:26:03;7.00;99.90
29571;DHT22;16814;52.118;11.436;2023-10-19T01:28:44;7.00;99.90
29571;DHT22;16814;52.118;11.436;2023-10-19T01:31:21;7.00;99.90
29571;DHT22;16814;52.118;11.436;2023-10-19T01:34:04;6.90;99.90
29571;DHT22;16814;52.118;11.436;2023-10-19T01:36:34;7.00;99.90
29571;DHT22;16814;52.118;11.436;2023-10-19T01:39:10;6.90;99.90
29571;DHT22;16814;52.118;11.436;2023-10-19T01:41:37;7.00;99.90
29571;DHT22;16814;52.118;11.436;2023-10-19T01:44:03;6.90;99.90
29571;DHT22;16814;52.118;11.436;2023-10-19T01:46:45;6.90;99.90
29571;DHT22;16814;52.118;11.436;2023-10-19T01:49:14;7.00;99.90
29571;DHT22;16814;52.118;11.436;2023-10-19T01:51:39;7.00;99.90
29571;DHT22;16814;52.118;11.436;2023-10-19T01:54:06;7.00;99.90
29571;DHT22;16814;52.118;11.436;2023-10-19T01:56:36;7.00;99.90
29571;DHT22;16814;52.118;11.436;2023-10-19T01:59:06;7.00;99.90
29571;DHT22;16814;52.118;11.436;2023-10-19T02:01:34;7.00;99.90
29571;DHT22;16814;52.118;11.436;2023-10-19T02:04:05;7.00;99.90
29571;DHT22;16814;52.118;11.436;2023-10-19T02:06:33;6.90;99.90
29571;DHT22;16814;52.118;11.436;2023-10-19T02:09:02;6.90;99.90
29571;DHT22;16814;52.118;11.436;2023-10-19T02:11:36;6.90;99.90
29571;DHT22;16814;52.118;11.436;2023-10-19T02:14:06;6.80;99.90
29571;DHT22;16814;52.118;11.436;2023-10-19T02:16:42;6.80;99.90
29571;DHT22;16814;52.118;11.436;2023-10-19T02:19:10;6.80;99.90
29571;DHT22;16814;52.118;11.436;2023-10-19T02:21:38;6.80;99.90
29571;DHT22;16814;52.118;11.436;2023-10-19T02:24:12;6.80;99.90
29571;DHT22;16814;52.118;11.436;2023-10-19T02:26:42;6.80;99.90
29571;DHT22;16814;52.118;11.436;2023-10-19T02:29:09;6.80;99.90
29571;DHT22;16814;52.118;11.436;2023-10-19T02:31:42;6.70;99.90
29571;DHT22;16814;52.118;11.436;2023-10-19T02:34:11;6.70;99.90
29571;DHT22;16814;52.118;11.436;2023-10-19T02:36:39;6.70;99.90
29571;DHT22;16814;52.118;11.436;2023-10-19T02:39:08;6.70;99.90
29571;DHT22;16814;52.118;11.436;2023-10-19T02:41:35;6.70;99.90
29571;DHT22;16814;52.118;11.436;2023-10-19T02:44:13;6.70;99.90
29571;DHT22;16814;52.118;11.436;2023-10-19T02:46:54;6.70;99.90
29571;DHT22;16814;52.118;11.436;2023-10-19T02:49:36;6.60;99.90
29571;DHT22;16814;52.118;11.436;2023-10-19T02:52:06;6.60;99.90
29571;DHT22;16814;52.118;11.436;2023-10-19T02:54:33;6.70;99.90
29571;DHT22;16814;52.118;11.436;2023-10-19T02:56:59;6.60;99.90
29571;DHT22;16814;52.118;11.436;2023-10-19T02:59:27;6.60;99.90
29571;DHT22;16814;52.118;11.436;2023-10-19T03:02:00;6.60;99.90
29571;DHT22;16814;52.118;11.436;2023-10-19T03:04:40;6.60;99.90
29571;DHT22;16814;52.118;11.436;2023-10-19T03:07:08;6.50;99.90
29571;DHT22;16814;52.118;11.436;2023-10-19T03:09:39;6.50;99.90
29571;DHT22;16814;52.118;11.436;2023-10-19T03:12:07;6.40;99.90
29571;DHT22;16814;52.118;11.436;2023-10-19T03:14:37;6.40;99.90
29571;DHT22;16814;52.118;11.436;2023-10-19T03:17:03;6.40;99.90
29571;DHT22;16814;52.118;11.436;2023-10-19T03:19:29;6.50;99.90
29571;DHT22;16814;52.118;11.436;2023-10-19T03:21:57;6.60;99.90
29571;DHT22;16814;52.118;11.436;2023-10-19T03:24:32;6.50;99.90
29571;DHT22;16814;52.118;11.436;2023-10-19T03:27:15;6.60;99.90
29571;DHT22;16814;52.118;11.436;2023-10-19T03:29:44;6.60;99.90
29571;DHT22;16814;52.118;11.436;2023-10-19T03:32:26;6.60;99.90
29571;DHT22;16814;52.118;11.436;2023-10-19T03:34:54;6.50;99.90
29571;DHT22;16814;52.118;11.436;2023-10-19T03:37:28;6.50;99.90
29571;DHT22;16814;52.118;11.436;2023-10-19T03:39:58;6.50;99.90
29571;DHT22;16814;52.118;11.436;2023-10-19T03:42:26;6.40;99.90
29571;DHT22;16814;52.118;11.436;2023-10-19T03:44:57;6.40;99.90
29571;DHT22;16814;52.118;11.436;2023-10-19T03:47:24;6.40;99.90
29571;DHT22;16814;52.118;11.436;2023-10-19T03:50:05;6.40;99.90
29571;DHT22;16814;52.118;11.436;2023-10-19T03:52:40;6.50;99.90
29571;DHT22;16814;52.118;11.436;2023-10-19T03:55:07;6.50;99.90
29571;DHT22;16814;52.118;11.436;2023-10-19T03:57:48;6.50;99.90
29571;DHT22;16814;52.118;11.436;2023-10-19T04:00:23;6.50;99.90
29571;DHT22;16814;52.118;11.436;2023-10-19T04:02:59;6.50;99.90
29571;DHT22;16814;52.118;11.436;2023-10-19T04:05:25;6.50;99.90
29571;DHT22;16814;52.118;11.436;2023-10-19T04:07:56;6.50;99.90
29571;DHT22;16814;52.118;11.436;2023-10-19T04:10:25;6.50;99.90
29571;DHT22;16814;52.118;11.436;2023-10-19T04:13:03;6.40;99.90
29571;DHT22;16814;52.118;11.436;2023-10-19T04:15:30;6.50;99.90
29571;DHT22;16814;52.118;11.436;2023-10-19T04:18:02;6.50;99.90
29571;DHT22;16814;52.118;11.436;2023-10-19T04:20:35;6.50;99.90
29571;DHT22;16814;52.118;11.436;2023-10-19T04:23:08;6.60;99.90
29571;DHT22;16814;52.118;11.436;2023-10-19T04:25:42;6.50;99.90
29571;DHT22;16814;52.118;11.436;2023-10-19T04:28:08;6.50;99.90
29571;DHT22;16814;52.118;11.436;2023-10-19T04:30:36;6.40;99.90
29571;DHT22;16814;52.118;11.436;2023-10-19T04:33:05;6.50;99.90
29571;DHT22;16814;52.118;11.436;2023-10-19T04:35:35;6.50;99.90
29571;DHT22;16814;52.118;11.436;2023-10-19T04:38:04;6.50;99.90
29571;DHT22;16814;52.118;11.436;2023-10-19T04:40:37;6.30;99.90
29571;DHT22;16814;52.118;11.436;2023-10-19T04:43:05;6.40;99.90
29571;DHT22;16814;52.118;11.436;2023-10-19T04:45:33;6.40;99.90
29571;DHT22;16814;52.118;11.436;2023-10-19T04:47:59;6.40;99.90
29571;DHT22;16814;52.118;11.436;2023-10-19T04:50:26;6.40;99.90
29571;DHT22;16814;52.118;11.436;2023-10-19T04:52:52;6.40;99.90
29571;DHT22;16814;52.118;11.436;2023-10-19T04:55:17;6.40;99.90
29571;DHT22;16814;52.118;11.436;2023-10-19T04:57:44;6.30;99.90
29571;DHT22;16814;52.118;11.436;2023-10-19T05:00:14;6.40;99.90
29571;DHT22;16814;52.118;11.436;2023-10-19T05:02:42;6.40;99.90
29571;DHT22;16814;52.118;11.436;2023-10-19T05:05:09;6.40;99.90
29571;DHT22;16814;52.118;11.436;2023-10-19T05:07:35;6.40;99.90
29571;DHT22;16814;52.118;11.436;2023-10-19T05:10:00;6.40;99.90
29571;DHT22;16814;52.118;11.436;2023-10-19T05:12:28;6.40;99.90
29571;DHT22;16814;52.118;11.436;2023-10-19T05:14:54;6.50;99.90
29571;DHT22;16814;52.118;11.436;2023-10-19T05:17:21;6.50;99.90
29571;DHT22;16814;52.118;11.436;2023-10-19T05:19:49;6.50;99.90
29571;DHT22;16814;52.118;11.436;2023-10-19T05:22:16;6.40;99.90
29571;DHT22;16814;52.118;11.436;2023-10-19T05:24:43;6.50;99.90
29571;DHT22;16814;52.118;11.436;2023-10-19T05:27:12;6.50;99.90
29571;DHT22;16814;52.118;11.436;2023-10-19T05:29:38;6.40;99.90
29571;DHT22;16814;52.118;11.436;2023-10-19T05:32:05;6.40;99.90
29571;DHT22;16814;52.118;11.436;2023-10-19T05:34:32;6.40;99.90
29571;DHT22;16814;52.118;11.436;2023-10-19T05:37:01;6.40;99.90
29571;DHT22;16814;52.118;11.436;2023-10-19T05:39:30;6.30;99.90
29571;DHT22;16814;52.118;11.436;2023-10-19T05:41:58;6.30;99.90
29571;DHT22;16814;52.118;11.436;2023-10-19T05:44:31;6.30;99.90
29571;DHT22;16814;52.118;11.436;2023-10-19T05:47:08;6.30;99.90
29571;DHT22;16814;52.118;11.436;2023-10-19T05:49:35;6.30;99.90
29571;DHT22;16814;52.118;11.436;2023-10-19T05:52:04;6.20;99.90
29571;DHT22;16814;52.118;11.436;2023-10-19T05:54:31;6.20;99.90
29571;DHT22;16814;52.118;11.436;2023-10-19T05:56:58;6.30;99.90
29571;DHT22;16814;52.118;11.436;2023-10-19T05:59:26;6.30;99.90
29571;DHT22;16814;52.118;11.436;2023-10-19T06:01:56;6.30;99.90
29571;DHT22;16814;52.118;11.436;2023-10-19T06:04:24;6.30;99.90
29571;DHT22;16814;52.118;11.436;2023-10-19T06:06:49;6.40;99.90
29571;DHT22;16814;52.118;11.436;2023-10-19T06:09:18;6.30;99.90
29571;DHT22;16814;52.118;11.436;2023-10-19T06:11:47;6.30;99.90
29571;DHT22;16814;52.118;11.436;2023-10-19T06:14:18;6.30;99.90
29571;DHT22;16814;52.118;11.436;2023-10-19T06:16:44;6.40;99.90
29571;DHT22;16814;52.118;11.436;2023-10-19T06:19:11;6.40;99.90
29571;DHT22;16814;52.118;11.436;2023-10-19T06:21:37;6.30;99.90
29571;DHT22;16814;52.118;11.436;2023-10-19T06:24:08;6.40;99.90
29571;DHT22;16814;52.118;11.436;2023-10-19T06:26:34;6.40;99.90
29571;DHT22;16814;52.118;11.436;2023-10-19T06:29:03;6.40;99.90
29571;DHT22;16814;52.118;11.436;2023-10-19T06:31:30;6.40;99.90
29571;DHT22;16814;52.118;11.436;2023-10-19T06:33:56;6.50;99.90
29571;DHT22;16814;52.118;11.436;2023-10-19T06:36:22;6.40;99.90
29571;DHT22;16814;52.118;11.436;2023-10-19T06:38:52;6.30;99.90
29571;DHT22;16814;52.118;11.436;2023-10-19T06:41:21;6.30;99.90
29571;DHT22;16814;52.118;11.436;2023-10-19T06:43:49;6.40;99.90
29571;DHT22;16814;52.118;11.436;2023-10-19T06:46:17;6.30;99.90
29571;DHT22;16814;52.118;11.436;2023-10-19T06:48:44;6.30;99.90
29571;DHT22;16814;52.118;11.436;2023-10-19T06:51:11;6.30;99.90
29571;DHT22;16814;52.118;11.436;2023-10-19T06:53:38;6.30;99.90
29571;DHT22;16814;52.118;11.436;2023-10-19T06:56:04;6.40;99.90
29571;DHT22;16814;52.118;11.436;2023-10-19T06:58:31;6.40;99.90
29571;DHT22;16814;52.118;11.436;2023-10-19T07:00:56;6.40;99.90
29571;DHT22;16814;52.118;11.436;2023-10-19T07:03:33;6.40;99.90
29571;DHT22;16814;52.118;11.436;2023-10-19T07:06:01;6.40;99.90
29571;DHT22;16814;52.118;11.436;2023-10-19T07:08:30;6.50;99.90
29571;DHT22;16814;52.118;11.436;2023-10-19T07:10:58;6.40;99.90
29571;DHT22;16814;52.118;11.436;2023-10-19T07:13:28;6.40;99.90
29571;DHT22;16814;52.118;11.436;2023-10-19T07:16:01;6.40;99.90
29571;DHT22;16814;52.118;11.436;2023-10-19T07:18:30;6.40;99.90
29571;DHT22;16814;52.118;11.436;2023-10-19T07:20:57;6.40;99.90
29571;DHT22;16814;52.118;11.436;2023-10-19T07:23:36;6.40;99.90
29571;DHT22;16814;52.118;11.436;2023-10-19T07:26:22;6.40;99.90
29571;DHT22;16814;52.118;11.436;2023-10-19T07:29:09;6.40;99.90
29571;DHT22;16814;52.118;11.436;2023-10-19T07:31:58;6.50;99.90
29571;DHT22;16814;52.118;11.436;2023-10-19T07:34:26;6.50;99.90
29571;DHT22;16814;52.118;11.436;2023-10-19T07:37:19;6.50;99.90
29571;DHT22;16814;52.118;11.436;2023-10-19T07:40:13;6.60;99.90
29571;DHT22;16814;52.118;11.436;2023-10-19T07:43:02;6.60;99.90
29571;DHT22;16814;52.118;11.436;2023-10-19T07:45:49;6.50;99.90
29571;DHT22;16814;52.118;11.436;2023-10-19T07:48:45;6.60;99.90
29571;DHT22;16814;52.118;11.436;2023-10-19T07:51:14;6.60;99.90
29571;DHT22;16814;52.118;11.436;2023-10-19T07:53:40;6.50;99.90
29571;DHT22;16814;52.118;11.436;2023-10-19T07:56:08;6.60;99.90
29571;DHT22;16814;52.118;11.436;2023-10-19T07:58:36;6.70;99.90
29571;DHT22;16814;52.118;11.436;2023-10-19T08:01:01;6.70;99.90
29571;DHT22;16814;52.118;11.436;2023-10-19T08:03:49;6.70;99.90
29571;DHT22;16814;52.118;11.436;2023-10-19T08:06:17;6.70;99.90
29571;DHT22;16814;52.118;11.436;2023-10-19T08:08:43;6.70;99.90
29571;DHT22;16814;52.118;11.436;2023-10-19T08:11:09;6.60;99.90
29571;DHT22;16814;52.118;11.436;2023-10-19T08:13:34;6.70;99.90
29571;DHT22;16814;52.118;11.436;2023-10-19T08:16:00;6.70;99.90
29571;DHT22;16814;52.118;11.436;2023-10-19T08:18:25;6.70;99.90
29571;DHT22;16814;52.118;11.436;2023-10-19T08:20:52;6.70;99.90
29571;DHT22;16814;52.118;11.436;2023-10-19T08:23:18;6.70;99.90
29571;DHT22;16814;52.118;11.436;2023-10-19T08:25:48;6.80;99.90
29571;DHT22;16814;52.118;11.436;2023-10-19T08:28:16;6.80;99.90
29571;DHT22;16814;52.118;11.436;2023-10-19T08:30:42;6.80;99.90
29571;DHT22;16814;52.118;11.436;2023-10-19T08:33:10;6.90;99.90
29571;DHT22;16814;52.118;11.436;2023-10-19T08:35:39;6.90;99.90
29571;DHT22;16814;52.118;11.436;2023-10-19T08:38:04;6.80;99.90
29571;DHT22;16814;52.118;11.436;2023-10-19T08:40:36;6.90;99.90
29571;DHT22;16814;52.118;11.436;2023-10-19T08:43:02;7.00;99.90
29571;DHT22;16814;52.118;11.436;2023-10-19T08:45:30;7.00;99.90
29571;DHT22;16814;52.118;11.436;2023-10-19T13:19:54;8.10;99.90
29571;DHT22;16814;52.118;11.436;2023-10-19T13:22:24;8.00;99.90
29571;DHT22;16814;52.118;11.436;2023-10-19T13:24:50;8.00;99.90
29571;DHT22;16814;52.118;11.436;2023-10-19T13:27:16;8.00;99.90
29571;DHT22;16814;52.118;11.436;2023-10-19T13:29:41;8.00;99.90
29571;DHT22;16814;52.118;11.436;2023-10-19T13:32:07;8.00;99.90
29571;DHT22;16814;52.118;11.436;2023-10-19T13:34:34;7.90;99.90
29571;DHT22;16814;52.118;11.436;2023-10-19T13:37:00;8.00;99.90
29571;DHT22;16814;52.118;11.436;2023-10-19T13:39:26;8.00;99.90
29571;DHT22;16814;52.118;11.436;2023-10-19T13:41:53;7.90;99.90
29571;DHT22;16814;52.118;11.436;2023-10-19T13:44:19;8.00;99.90
29571;DHT22;16814;52.118;11.436;2023-10-19T13:46:46;7.90;99.90
29571;DHT22;16814;52.118;11.436;2023-10-19T13:49:12;8.00;99.90
29571;DHT22;16814;52.118;11.436;2023-10-19T13:51:38;8.00;99.90
29571;DHT22;16814;52.118;11.436;2023-10-19T13:54:05;8.10;99.90
29571;DHT22;16814;52.118;11.436;2023-10-19T13:56:31;8.00;99.90
29571;DHT22;16814;52.118;11.436;2023-10-19T13:58:57;8.00;99.90
29571;DHT22;16814;52.118;11.436;2023-10-19T14:01:22;8.10;99.90
29571;DHT22;16814;52.118;11.436;2023-10-19T14:03:51;8.10;99.90
29571;DHT22;16814;52.118;11.436;2023-10-19T14:06:20;8.10;99.90
29571;DHT22;16814;52.118;11.436;2023-10-19T14:08:46;8.10;99.90
29571;DHT22;16814;52.118;11.436;2023-10-19T14:11:13;8.10;99.90
29571;DHT22;16814;52.118;11.436;2023-10-19T14:13:39;8.00;99.90
29571;DHT22;16814;52.118;11.436;2023-10-19T14:16:08;7.90;99.90
29571;DHT22;16814;52.118;11.436;2023-10-19T14:18:34;7.90;99.90
29571;DHT22;16814;52.118;11.436;2023-10-19T14:20:59;8.00;99.90
29571;DHT22;16814;52.118;11.436;2023-10-19T14:23:26;8.00;99.90
29571;DHT22;16814;52.118;11.436;2023-10-19T14:25:52;8.10;99.90
29571;DHT22;16814;52.118;11.436;2023-10-19T14:28:18;8.00;99.90
29571;DHT22;16814;52.118;11.436;2023-10-19T14:30:44;7.90;99.90
29571;DHT22;16814;52.118;11.436;2023-10-19T14:33:10;7.80;99.90
29571;DHT22;16814;52.118;11.436;2023-10-19T14:35:36;7.80;99.90
29571;DHT22;16814;52.118;11.436;2023-10-19T14:38:04;7.90;99.90
29571;DHT22;16814;52.118;11.436;2023-10-19T14:40:32;8.00;99.90
29571;DHT22;16814;52.118;11.436;2023-10-19T14:42:57;8.00;99.90
29571;DHT22;16814;52.118;11.436;2023-10-19T14:45:27;7.90;99.90
29571;DHT22;16814;52.118;11.436;2023-10-19T14:47:57;7.90;99.90
29571;DHT22;16814;52.118;11.436;2023-10-19T14:50:29;7.80;99.90
29571;DHT22;16814;52.118;11.436;2023-10-19T14:52:55;7.70;99.90
29571;DHT22;16814;52.118;11.436;2023-10-19T14:55:21;7.70;99.90
29571;DHT22;16814;52.118;11.436;2023-10-19T14:57:49;7.60;99.90
29571;DHT22;16814;52.118;11.436;2023-10-19T15:00:17;7.50;99.90
29571;DHT22;16814;52.118;11.436;2023-10-19T15:03:01;7.60;99.90
29571;DHT22;16814;52.118;11.436;2023-10-19T15:05:28;7.60;99.90
29571;DHT22;16814;52.118;11.436;2023-10-19T15:07:54;7.70;99.90
29571;DHT22;16814;52.118;11.436;2023-10-19T15:10:25;7.60;99.90
29571;DHT22;16814;52.118;11.436;2023-10-19T15:12:52;7.60;99.90
29571;DHT22;16814;52.118;11.436;2023-10-19T15:15:18;7.60;99.90
29571;DHT22;16814;52.118;11.436;2023-10-19T15:17:44;7.60;99.90
29571;DHT22;16814;52.118;11.436;2023-10-19T15:20:12;7.50;99.90
29571;DHT22;16814;52.118;11.436;2023-10-19T15:22:44;7.50;99.90
29571;DHT22;16814;52.118;11.436;2023-10-19T15:25:11;7.60;99.90
29571;DHT22;16814;52.118;11.436;2023-10-19T15:27:39;7.50;99.90
29571;DHT22;16814;52.118;11.436;2023-10-19T15:30:09;7.60;99.90
29571;DHT22;16814;52.118;11.436;2023-10-19T15:32:40;7.80;99.90
29571;DHT22;16814;52.118;11.436;2023-10-19T15:35:13;7.40;99.90
29571;DHT22;16814;52.118;11.436;2023-10-19T15:37:46;7.40;99.90
29571;DHT22;16814;52.118;11.436;2023-10-19T15:40:14;7.40;99.90
29571;DHT22;16814;52.118;11.436;2023-10-19T15:42:40;7.40;99.90
29571;DHT22;16814;52.118;11.436;2023-10-19T15:45:09;7.30;99.90
29571;DHT22;16814;52.118;11.436;2023-10-19T15:47:34;7.30;99.90
29571;DHT22;16814;52.118;11.436;2023-10-19T15:50:00;7.30;99.90
29571;DHT22;16814;52.118;11.436;2023-10-19T15:52:26;7.40;99.90
29571;DHT22;16814;52.118;11.436;2023-10-19T15:54:57;7.40;99.90
29571;DHT22;16814;52.118;11.436;2023-10-19T15:57:23;7.40;99.90
29571;DHT22;16814;52.118;11.436;2023-10-19T15:59:50;7.30;99.90
29571;DHT22;16814;52.118;11.436;2023-10-19T16:02:16;7.30;99.90
29571;DHT22;16814;52.118;11.436;2023-10-19T16:04:44;7.30;99.90
29571;DHT22;16814;52.118;11.436;2023-10-19T16:07:10;7.30;99.90
29571;DHT22;16814;52.118;11.436;2023-10-19T16:09:37;7.30;99.90
29571;DHT22;16814;52.118;11.436;2023-10-19T16:12:02;7.30;99.90
29571;DHT22;16814;52.118;11.436;2023-10-19T16:14:28;7.30;99.90
29571;DHT22;16814;52.118;11.436;2023-10-19T16:16:54;7.40;99.90
29571;DHT22;16814;52.118;11.436;2023-10-19T16:19:19;7.30;99.90
29571;DHT22;16814;52.118;11.436;2023-10-19T16:21:45;7.40;99.90
29571;DHT22;16814;52.118;11.436;2023-10-19T16:24:11;7.30;99.90
29571;DHT22;16814;52.118;11.436;2023-10-19T16:26:37;7.30;99.90
29571;DHT22;16814;52.118;11.436;2023-10-19T16:29:04;7.20;99.90
29571;DHT22;16814;52.118;11.436;2023-10-19T16:31:31;7.20;99.90
29571;DHT22;16814;52.118;11.436;2023-10-19T16:33:58;7.30;99.90
29571;DHT22;16814;52.118;11.436;2023-10-19T16:36:23;7.30;99.90
29571;DHT22;16814;52.118;11.436;2023-10-19T16:38:50;7.20;99.90
29571;DHT22;16814;52.118;11.436;2023-10-19T16:41:16;7.20;99.90
29571;DHT22;16814;52.118;11.436;2023-10-19T16:43:41;7.20;99.90
29571;DHT22;16814;52.118;11.436;2023-10-19T16:46:08;7.20;99.90
29571;DHT22;16814;52.118;11.436;2023-10-19T16:48:34;7.30;99.90
29571;DHT22;16814;52.118;11.436;2023-10-19T16:51:01;7.10;99.90
29571;DHT22;16814;52.118;11.436;2023-10-19T16:53:26;7.10;99.90
29571;DHT22;16814;52.118;11.436;2023-10-19T16:55:58;7.20;99.90
29571;DHT22;16814;52.118;11.436;2023-10-19T16:58:24;7.30;99.90
29571;DHT22;16814;52.118;11.436;2023-10-19T17:00:50;7.30;99.90
29571;DHT22;16814;52.118;11.436;2023-10-19T17:03:16;7.30;99.90
29571;DHT22;16814;52.118;11.436;2023-10-19T17:05:42;7.30;99.90
29571;DHT22;16814;52.118;11.436;2023-10-19T17:08:07;7.20;99.90
29571;DHT22;16814;52.118;11.436;2023-10-19T17:10:33;7.30;99.90
29571;DHT22;16814;52.118;11.436;2023-10-19T17:12:58;7.30;99.90
29571;DHT22;16814;52.118;11.436;2023-10-19T17:15:24;7.30;99.90
29571;DHT22;16814;52.118;11.436;2023-10-19T17:17:49;7.30;99.90
29571;DHT22;16814;52.118;11.436;2023-10-19T17:20:15;7.20;99.90
29571;DHT22;16814;52.118;11.436;2023-10-19T17:22:41;7.20;99.90
29571;DHT22;16814;52.118;11.436;2023-10-19T17:25:06;7.30;99.90
29571;DHT22;16814;52.118;11.436;2023-10-19T17:27:32;7.30;99.90
29571;DHT22;16814;52.118;11.436;2023-10-19T17:29:58;7.30;99.90
29571;DHT22;16814;52.118;11.436;2023-10-19T17:32:23;7.30;99.90
29571;DHT22;16814;52.118;11.436;2023-10-19T17:34:49;7.20;99.90
29571;DHT22;16814;52.118;11.436;2023-10-19T17:37:15;7.20;99.90
29571;DHT22;16814;52.118;11.436;2023-10-19T17:39:41;7.20;99.90
29571;DHT22;16814;52.118;11.436;2023-10-19T17:42:06;7.10;99.90
29571;DHT22;16814;52.118;11.436;2023-10-19T17:44:33;7.20;99.90
29571;DHT22;16814;52.118;11.436;2023-10-19T17:46:59;7.10;99.90
29571;DHT22;16814;52.118;11.436;2023-10-19T17:49:25;7.10;99.90
29571;DHT22;16814;52.118;11.436;2023-10-19T17:51:51;7.20;99.90
29571;DHT22;16814;52.118;11.436;2023-10-19T17:54:17;7.20;99.90
29571;DHT22;16814;52.118;11.436;2023-10-19T17:56:45;7.20;99.90
29571;DHT22;16814;52.118;11.436;2023-10-19T17:59:11;7.30;99.90
29571;DHT22;16814;52.118;11.436;2023-10-19T18:01:37;7.30;99.90
29571;DHT22;16814;52.118;11.436;2023-10-19T18:04:07;7.30;99.90
29571;DHT22;16814;52.118;11.436;2023-10-19T18:06:34;7.10;99.90
29571;DHT22;16814;52.118;11.436;2023-10-19T18:08:59;7.30;99.90
29571;DHT22;16814;52.118;11.436;2023-10-19T18:11:25;7.30;99.90
29571;DHT22;16814;52.118;11.436;2023-10-19T18:13:51;7.30;99.90
29571;DHT22;16814;52.118;11.436;2023-10-19T18:16:17;7.20;99.90
29571;DHT22;16814;52.118;11.436;2023-10-19T18:18:42;7.30;99.90
29571;DHT22;16814;52.118;11.436;2023-10-19T18:21:13;7.30;99.90
29571;DHT22;16814;52.118;11.436;2023-10-19T18:23:42;7.20;99.90
29571;DHT22;16814;52.118;11.436;2023-10-19T18:26:15;7.40;99.90
29571;DHT22;16814;52.118;11.436;2023-10-19T18:28:44;7.40;99.90
29571;DHT22;16814;52.118;11.436;2023-10-19T18:31:10;7.30;99.90
29571;DHT22;16814;52.118;11.436;2023-10-19T18:33:38;7.40;99.90
29571;DHT22;16814;52.118;11.436;2023-10-19T18:36:05;7.40;99.90
29571;DHT22;16814;52.118;11.436;2023-10-19T18:38:34;7.50;99.90
29571;DHT22;16814;52.118;11.436;2023-10-19T18:41:02;7.40;99.90
29571;DHT22;16814;52.118;11.436;2023-10-19T18:43:28;7.30;99.90
29571;DHT22;16814;52.118;11.436;2023-10-19T18:45:55;7.30;99.90
29571;DHT22;16814;52.118;11.436;2023-10-19T18:48:21;7.30;99.90
29571;DHT22;16814;52.118;11.436;2023-10-19T18:51:00;7.30;99.90
29571;DHT22;16814;52.118;11.436;2023-10-19T18:53:27;7.40;99.90
29571;DHT22;16814;52.118;11.436;2023-10-19T18:55:53;7.40;99.90
29571;DHT22;16814;52.118;11.436;2023-10-19T18:58:20;7.50;99.90
29571;DHT22;16814;52.118;11.436;2023-10-19T19:00:58;7.40;99.90
29571;DHT22;16814;52.118;11.436;2023-10-19T19:03:25;7.30;99.90
29571;DHT22;16814;52.118;11.436;2023-10-19T19:05:55;7.30;99.90
29571;DHT22;16814;52.118;11.436;2023-10-19T19:08:26;7.30;99.90
29571;DHT22;16814;52.118;11.436;2023-10-19T19:10:53;7.30;99.90
29571;DHT22;16814;52.118;11.436;2023-10-19T19:13:19;7.30;99.90
29571;DHT22;16814;52.118;11.436;2023-10-19T19:15:46;7.30;99.90
29571;DHT22;16814;52.118;11.436;2023-10-19T19:18:14;7.30;99.90
29571;DHT22;16814;52.118;11.436;2023-10-19T19:20:40;7.30;99.90
29571;DHT22;16814;52.118;11.436;2023-10-19T19:23:06;7.40;99.90
29571;DHT22;16814;52.118;11.436;2023-10-19T19:25:33;7.30;99.90
29571;DHT22;16814;52.118;11.436;2023-10-19T19:27:59;7.40;99.90
29571;DHT22;16814;52.118;11.436;2023-10-19T19:30:25;7.40;99.90
29571;DHT22;16814;52.118;11.436;2023-10-19T19:32:53;7.40;99.90
29571;DHT22;16814;52.118;11.436;2023-10-19T19:35:18;7.30;99.90
29571;DHT22;16814;52.118;11.436;2023-10-19T19:37:45;7.30;99.90
29571;DHT22;16814;52.118;11.436;2023-10-19T19:40:11;7.30;99.90
29571;DHT22;16814;52.118;11.436;2023-10-19T19:42:43;7.30;99.90
29571;DHT22;16814;52.118;11.436;2023-10-19T19:45:13;7.30;99.90
29571;DHT22;16814;52.118;11.436;2023-10-19T19:47:40;7.40;99.90
29571;DHT22;16814;52.118;11.436;2023-10-19T19:50:06;7.40;99.90
29571;DHT22;16814;52.118;11.436;2023-10-19T19:52:32;7.40;99.90
29571;DHT22;16814;52.118;11.436;2023-10-19T19:55:06;7.40;99.90
29571;DHT22;16814;52.118;11.436;2023-10-19T19:57:34;7.40;99.90
29571;DHT22;16814;52.118;11.436;2023-10-19T20:00:04;7.50;99.90
29571;DHT22;16814;52.118;11.436;2023-10-19T20:02:43;7.40;99.90
29571;DHT22;16814;52.118;11.436;2023-10-19T20:05:16;7.40;99.90
29571;DHT22;16814;52.118;11.436;2023-10-19T20:07:43;7.40;99.90
29571;DHT22;16814;52.118;11.436;2023-10-19T20:10:11;7.40;99.90
29571;DHT22;16814;52.118;11.436;2023-10-19T20:12:39;7.40;99.90
29571;DHT22;16814;52.118;11.436;2023-10-19T20:15:05;7.40;99.90